createdAt,value
2022-09-10T00:01:40.066Z,9.20
2022-09-10T00:04:13.353Z,9.10
2022-09-10T00:06:42.767Z,9.33
2022-09-10T00:09:12.316Z,9.20
2022-09-10T00:11:42.058Z,9.20
2022-09-10T00:14:15.490Z,9.20
2022-09-10T00:16:44.483Z,9.50
2022-09-10T00:19:14.892Z,9.20
2022-09-10T00:21:45.411Z,9.40
2022-09-10T00:24:13.801Z,9.40
2022-09-10T00:26:42.331Z,9.40
2022-09-10T00:29:15.935Z,9.20
2022-09-10T00:31:44.914Z,9.20
2022-09-10T00:34:15.446Z,9.87
2022-09-10T00:36:44.961Z,9.47
2022-09-10T00:39:16.548Z,9.30
2022-09-10T00:41:48.409Z,9.23
2022-09-10T00:45:14.780Z,9.30
2022-09-10T00:47:44.935Z,9.30
2022-09-10T00:50:22.117Z,9.53
2022-09-10T00:52:51.452Z,9.63
2022-09-10T00:55:20.690Z,9.53
2022-09-10T00:57:52.492Z,9.10
2022-09-10T01:00:20.975Z,9.37
2022-09-10T01:02:49.651Z,9.30
2022-09-10T01:05:20.852Z,10.17
2022-09-10T01:07:49.419Z,9.20
2022-09-10T01:10:22.656Z,9.30
2022-09-10T01:13:21.909Z,9.40
2022-09-10T01:15:59.863Z,9.60
2022-09-10T01:18:39.241Z,9.47
2022-09-10T01:21:22.387Z,9.73
2022-09-10T01:24:30.700Z,9.37
2022-09-10T01:27:34.265Z,9.43
2022-09-10T01:30:09.007Z,9.30
2022-09-10T01:32:55.804Z,9.30
2022-09-10T01:35:36.527Z,10.23
2022-09-10T01:38:10.803Z,9.87
2022-09-10T01:40:39.855Z,9.20
2022-09-10T01:43:13.919Z,9.53
2022-09-10T01:46:04.273Z,9.20
2022-09-10T01:48:59.806Z,9.37
2022-09-10T01:51:40.175Z,9.90
2022-09-10T01:54:24.846Z,9.60
2022-09-10T01:57:08.117Z,9.30
2022-09-10T01:59:44.826Z,9.43
2022-09-10T02:02:19.762Z,9.40
2022-09-10T02:04:50.495Z,9.30
2022-09-10T02:07:22.631Z,9.30
2022-09-10T02:09:53.130Z,9.50
2022-09-10T02:12:23.903Z,9.30
2022-09-10T02:15:14.074Z,9.50
2022-09-10T02:18:01.902Z,9.27
2022-09-10T02:20:31.254Z,9.50
2022-09-10T02:23:00.908Z,9.50
2022-09-10T02:25:34.664Z,9.40
2022-09-10T02:28:05.452Z,9.70
2022-09-10T02:30:35.478Z,9.40
2022-09-10T02:33:03.946Z,9.30
2022-09-10T02:35:32.267Z,9.83
2022-09-10T02:38:00.569Z,9.20
2022-09-10T02:40:31.848Z,9.60
2022-09-10T02:43:00.506Z,9.20
2022-09-10T02:45:30.419Z,9.80
2022-09-10T02:48:01.389Z,9.53
2022-09-10T02:50:30.834Z,9.67
2022-09-10T02:52:59.280Z,9.53
2022-09-10T02:55:27.694Z,9.40
2022-09-10T02:57:56.372Z,9.57
2022-09-10T03:00:24.870Z,9.47
2022-09-10T03:02:53.235Z,9.60
2022-09-10T03:05:23.075Z,9.30
2022-09-10T03:07:52.345Z,9.30
2022-09-10T03:10:21.938Z,9.60
2022-09-10T03:12:51.165Z,9.50
2022-09-10T03:15:20.641Z,9.50
2022-09-10T03:17:48.955Z,9.30
2022-09-10T03:20:18.208Z,9.60
2022-09-10T03:22:48.080Z,9.27
2022-09-10T03:25:17.744Z,9.90
2022-09-10T03:27:46.081Z,9.50
2022-09-10T03:30:14.886Z,9.70
2022-09-10T03:32:43.264Z,9.40
2022-09-10T03:35:16.099Z,9.53
2022-09-10T03:37:44.760Z,9.43
2022-09-10T03:40:14.443Z,9.60
2022-09-10T03:42:44.640Z,9.60
2022-09-10T03:45:13.794Z,9.30
2022-09-10T03:47:42.409Z,9.80
2022-09-10T03:50:12.298Z,9.77
2022-09-10T03:52:40.603Z,9.67
2022-09-10T03:55:10.849Z,9.57
2022-09-10T03:57:42.245Z,9.40
2022-09-10T04:00:12.911Z,9.50
2022-09-10T04:02:44.175Z,9.50
2022-09-10T04:05:14.012Z,9.33
2022-09-10T04:07:42.980Z,9.40
2022-09-10T04:10:13.254Z,9.60
2022-09-10T04:12:43.762Z,9.60
2022-09-10T04:15:13.383Z,9.40
2022-09-10T04:17:41.875Z,9.40
2022-09-10T04:20:11.248Z,9.40
2022-09-10T04:22:39.938Z,9.70
2022-09-10T04:25:09.515Z,9.70
2022-09-10T04:27:38.290Z,9.60
2022-09-10T04:30:10.719Z,9.53
2022-09-10T04:32:39.313Z,9.60
2022-09-10T04:35:09.959Z,9.30
2022-09-10T04:37:38.592Z,9.40
2022-09-10T04:40:09.412Z,9.40
2022-09-10T04:42:38.568Z,9.30
2022-09-10T04:45:09.898Z,9.30
2022-09-10T04:47:38.404Z,9.30
2022-09-10T04:50:09.944Z,9.40
2022-09-10T04:52:38.249Z,9.60
2022-09-10T04:55:08.326Z,9.40
2022-09-10T04:57:36.786Z,9.30
2022-09-10T05:00:10.055Z,9.40
2022-09-10T05:02:39.957Z,9.40
2022-09-10T05:05:09.771Z,9.50
2022-09-10T05:07:38.726Z,9.47
2022-09-10T05:10:10.553Z,9.57
2022-09-10T05:12:39.673Z,9.40
2022-09-10T05:15:11.057Z,9.97
2022-09-10T05:17:39.859Z,9.40
2022-09-10T05:20:10.720Z,9.50
2022-09-10T05:22:46.577Z,9.80
2022-09-10T05:25:15.321Z,9.50
2022-09-10T05:27:44.402Z,9.37
2022-09-10T05:30:19.045Z,9.87
2022-09-10T05:32:48.629Z,9.80
2022-09-10T05:35:17.859Z,9.30
2022-09-10T05:37:48.386Z,9.70
2022-09-10T05:40:17.069Z,9.60
2022-09-10T05:42:45.452Z,11.90
2022-09-10T05:45:14.126Z,9.70
2022-09-10T05:47:45.110Z,9.63
2022-09-10T05:50:18.689Z,9.37
2022-09-10T05:52:47.267Z,9.40
2022-09-10T05:55:15.883Z,9.70
2022-09-10T05:57:44.370Z,9.40
2022-09-10T06:00:16.337Z,9.40
2022-09-10T06:02:53.832Z,9.63
2022-09-10T06:05:44.367Z,9.30
2022-09-10T06:08:13.037Z,9.30
2022-09-10T06:10:45.026Z,9.40
2022-09-10T06:13:13.830Z,9.43
2022-09-10T06:15:42.654Z,9.30
2022-09-10T06:18:12.648Z,9.90
2022-09-10T06:20:40.988Z,9.27
2022-09-10T06:23:20.070Z,9.97
2022-09-10T06:25:49.415Z,9.80
2022-09-10T06:28:17.692Z,9.30
2022-09-10T06:30:46.253Z,9.27
2022-09-10T06:33:16.658Z,9.60
2022-09-10T06:35:45.432Z,9.50
2022-09-10T06:38:13.722Z,9.37
2022-09-10T06:40:54.583Z,9.30
2022-09-10T06:43:26.058Z,10.60
2022-09-10T06:46:05.553Z,9.33
2022-09-10T06:48:55.209Z,9.27
2022-09-10T06:51:24.962Z,9.40
2022-09-10T06:53:53.535Z,9.20
2022-09-10T06:56:23.251Z,9.30
2022-09-10T06:58:52.090Z,9.33
2022-09-10T07:01:23.900Z,9.27
2022-09-10T07:03:58.493Z,9.47
2022-09-10T07:06:31.893Z,9.40
2022-09-10T07:09:06.226Z,9.20
2022-09-10T07:11:41.752Z,9.13
2022-09-10T07:14:13.930Z,9.23
2022-09-10T07:16:44.617Z,9.27
2022-09-10T07:19:17.387Z,9.50
2022-09-10T07:21:46.980Z,9.27
2022-09-10T07:24:17.479Z,9.00
2022-09-10T07:27:08.037Z,9.40
2022-09-10T07:29:38.160Z,9.10
2022-09-10T07:32:13.535Z,9.20
2022-09-10T07:34:43.779Z,9.30
2022-09-10T07:37:15.556Z,9.30
2022-09-10T07:39:44.290Z,8.90
2022-09-10T07:42:12.826Z,9.63
2022-09-10T07:44:42.296Z,9.53
2022-09-10T07:47:10.624Z,9.10
2022-09-10T07:49:39.720Z,9.43
2022-09-10T07:52:10.597Z,9.67
2022-09-10T07:54:46.835Z,9.20
2022-09-10T07:57:15.240Z,9.30
2022-09-10T07:59:43.623Z,8.93
2022-09-10T08:02:15.440Z,8.90
2022-09-10T08:04:47.535Z,9.50
2022-09-10T08:07:19.197Z,9.20
2022-09-10T08:09:48.549Z,9.23
2022-09-10T08:12:18.715Z,9.10
2022-09-10T08:14:48.311Z,8.80
2022-09-10T08:17:18.090Z,9.50
2022-09-10T08:19:47.434Z,9.60
2022-09-10T08:22:18.205Z,9.20
2022-09-10T08:24:55.708Z,8.80
2022-09-10T08:27:26.921Z,9.00
2022-09-10T08:29:56.439Z,9.10
2022-09-10T08:32:25.320Z,9.00
2022-09-10T08:34:54.377Z,11.60
2022-09-10T08:37:24.080Z,8.83
2022-09-10T08:39:52.405Z,8.80
2022-09-10T08:42:28.591Z,8.70
2022-09-10T08:45:04.268Z,8.87
2022-09-10T08:47:43.900Z,8.93
2022-09-10T08:50:26.613Z,8.80
2022-09-10T08:53:02.730Z,9.00
2022-09-10T08:55:33.976Z,9.13
2022-09-10T08:58:13.133Z,8.97
2022-09-10T09:00:45.394Z,9.27
2022-09-10T09:03:24.165Z,8.87
2022-09-10T09:05:55.607Z,9.10
2022-09-10T09:08:35.221Z,8.83
2022-09-10T09:11:14.950Z,8.60
2022-09-10T09:14:33.527Z,8.80
2022-09-10T09:17:38.074Z,8.90
2022-09-10T09:20:17.403Z,8.83
2022-09-10T09:22:55.097Z,8.80
2022-09-10T09:25:39.435Z,8.90
2022-09-10T09:28:21.242Z,8.40
2022-09-10T09:30:52.339Z,8.70
2022-09-10T09:33:25.175Z,8.70
2022-09-10T09:36:00.267Z,8.87
2022-09-10T09:38:34.100Z,8.70
2022-09-10T09:41:10.033Z,8.60
2022-09-10T09:43:54.266Z,8.60
2022-09-10T09:46:24.721Z,8.70
2022-09-10T09:49:00.118Z,8.73
2022-09-10T09:51:35.510Z,8.80
2022-09-10T09:54:46.704Z,8.47
2022-09-10T09:57:01.499Z,8.80
2022-09-10T09:59:32.018Z,9.10
2022-09-10T10:02:06.714Z,8.70
2022-09-10T10:04:38.961Z,8.63
2022-09-10T10:07:10.213Z,8.60
2022-09-10T10:09:43.645Z,8.70
2022-09-10T10:12:22.056Z,9.10
2022-09-10T10:14:51.451Z,8.83
2022-09-10T10:17:36.057Z,8.60
2022-09-10T10:20:12.046Z,8.80
2022-09-10T10:22:41.854Z,8.70
2022-09-10T10:25:40.343Z,9.00
2022-09-10T10:28:25.508Z,8.80
2022-09-10T10:30:56.085Z,8.70
2022-09-10T10:33:30.090Z,8.80
2022-09-10T10:36:08.038Z,8.80
2022-09-10T10:38:40.241Z,8.40
2022-09-10T10:41:44.495Z,8.50
2022-09-10T10:44:38.402Z,8.90
2022-09-10T10:47:30.705Z,8.50
2022-09-10T10:50:10.047Z,8.40
2022-09-10T10:52:47.789Z,8.30
2022-09-10T10:55:24.901Z,8.70
2022-09-10T10:58:16.706Z,8.40
2022-09-10T11:00:51.971Z,8.30
2022-09-10T11:03:24.110Z,8.40
2022-09-10T11:05:57.335Z,8.60
2022-09-10T11:08:33.280Z,8.30
2022-09-10T11:11:09.208Z,8.20
2022-09-10T11:13:43.541Z,8.50
2022-09-10T11:16:20.267Z,8.73
2022-09-10T11:18:54.632Z,8.30
2022-09-10T11:21:31.326Z,8.60
2022-09-10T11:24:03.064Z,8.30
2022-09-10T11:26:37.873Z,8.80
2022-09-10T11:29:25.415Z,8.90
2022-09-10T11:32:05.484Z,8.40
2022-09-10T11:34:40.504Z,8.90
2022-09-10T11:37:18.218Z,8.73
2022-09-10T11:39:50.713Z,8.40
2022-09-10T11:42:24.805Z,8.43
2022-09-10T11:45:02.974Z,8.53
2022-09-10T11:47:37.812Z,8.93
2022-09-10T11:50:17.515Z,8.67
2022-09-10T11:52:46.355Z,8.50
2022-09-10T11:55:18.130Z,8.07
2022-09-10T11:57:59.487Z,8.33
2022-09-10T12:00:31.201Z,8.40
2022-09-10T12:03:57.316Z,8.77
2022-09-10T12:06:33.451Z,8.20
2022-09-10T12:09:11.900Z,8.60
2022-09-10T12:11:51.615Z,8.20
2022-09-10T12:14:21.708Z,8.30
2022-09-10T12:16:53.978Z,8.53
2022-09-10T12:19:29.569Z,8.60
2022-09-10T12:22:03.288Z,8.23
2022-09-10T12:24:34.769Z,8.70
2022-09-10T12:27:05.975Z,8.60
2022-09-10T12:29:37.451Z,8.40
2022-09-10T12:32:29.990Z,8.70
2022-09-10T12:35:49.219Z,8.37
2022-09-10T12:38:50.929Z,8.57
2022-09-10T12:41:56.954Z,8.30
2022-09-10T12:44:54.010Z,8.50
2022-09-10T12:47:50.239Z,8.63
2022-09-10T12:50:40.344Z,8.80
2022-09-10T12:54:12.652Z,8.50
2022-09-10T12:57:04.209Z,8.50
2022-09-10T13:00:23.026Z,8.77
2022-09-10T13:02:55.479Z,8.80
2022-09-10T13:05:32.730Z,8.60
2022-09-10T13:08:14.632Z,8.33
2022-09-10T13:10:45.794Z,8.40
2022-09-10T13:13:36.068Z,8.90
2022-09-10T13:16:06.512Z,8.63
2022-09-10T13:18:36.362Z,8.30
2022-09-10T13:21:53.965Z,8.40
2022-09-10T13:24:40.096Z,8.73
2022-09-10T13:27:22.626Z,8.90
2022-09-10T13:29:57.609Z,9.13
2022-09-10T13:32:30.959Z,8.53
2022-09-10T13:35:44.404Z,8.77
2022-09-10T13:38:59.680Z,8.70
2022-09-10T13:42:08.878Z,8.53
2022-09-10T13:44:54.690Z,8.67
2022-09-10T13:47:30.115Z,8.60
2022-09-10T13:50:05.279Z,8.30
2022-09-10T13:52:36.656Z,8.50
2022-09-10T13:55:08.616Z,8.50
2022-09-10T13:57:41.147Z,8.20
2022-09-10T14:00:23.515Z,8.57
2022-09-10T14:02:54.197Z,8.23
2022-09-10T14:05:43.622Z,8.90
2022-09-10T14:08:17.807Z,8.37
2022-09-10T14:10:53.953Z,8.40
2022-09-10T14:13:29.683Z,8.40
2022-09-10T14:16:02.493Z,8.33
2022-09-10T14:18:42.908Z,8.43
2022-09-10T14:21:14.537Z,8.80
2022-09-10T14:23:47.566Z,8.40
2022-09-10T14:26:23.558Z,8.50
2022-09-10T14:28:58.914Z,8.40
2022-09-10T14:31:36.205Z,8.50
2022-09-10T14:34:32.418Z,8.77
2022-09-10T14:37:01.739Z,8.93
2022-09-10T14:39:30.397Z,8.80
2022-09-10T14:42:25.251Z,8.90
2022-09-10T14:44:54.372Z,8.57
2022-09-10T14:47:32.488Z,8.43
2022-09-10T14:50:35.737Z,8.77
2022-09-10T14:53:04.029Z,8.50
2022-09-10T14:55:34.056Z,8.40
2022-09-10T14:58:02.328Z,8.60
2022-09-10T15:00:31.039Z,8.50
2022-09-10T15:03:00.753Z,8.33
2022-09-10T15:05:29.684Z,8.43
2022-09-10T15:07:57.997Z,8.67
2022-09-10T15:10:26.392Z,8.50
2022-09-10T15:12:56.547Z,8.70
2022-09-10T15:15:26.872Z,8.50
2022-09-10T15:17:55.197Z,8.40
2022-09-10T15:20:27.774Z,8.90
2022-09-10T15:22:56.508Z,8.60
2022-09-10T15:25:37.449Z,8.37
2022-09-10T15:28:07.896Z,8.50
2022-09-10T15:30:36.948Z,8.30
2022-09-10T15:33:06.005Z,8.40
2022-09-10T15:35:36.362Z,8.40
2022-09-10T15:38:04.721Z,8.30
2022-09-10T15:40:32.989Z,8.10
2022-09-10T15:43:01.316Z,8.50
2022-09-10T15:45:29.572Z,8.40
2022-09-10T15:47:57.918Z,8.20
2022-09-10T15:50:26.438Z,8.40
2022-09-10T15:52:56.188Z,8.20
2022-09-10T15:55:24.480Z,8.20
2022-09-10T15:57:53.267Z,8.27
2022-09-10T16:00:21.778Z,8.10
2022-09-10T16:02:53.094Z,8.30
2022-09-10T16:05:22.576Z,8.40
2022-09-10T16:07:50.849Z,8.40
2022-09-10T16:10:20.505Z,8.27
2022-09-10T16:12:48.839Z,8.50
2022-09-10T16:15:25.218Z,8.30
2022-09-10T16:17:53.610Z,8.50
2022-09-10T16:20:21.862Z,8.17
2022-09-10T16:22:50.766Z,8.70
2022-09-10T16:25:20.419Z,8.30
2022-09-10T16:27:49.410Z,8.43
2022-09-10T16:30:17.915Z,8.40
2022-09-10T16:32:47.125Z,8.40
2022-09-10T16:35:15.536Z,8.50
2022-09-10T16:37:44.137Z,8.40
2022-09-10T16:40:16.111Z,8.30
2022-09-10T16:42:46.399Z,8.50
2022-09-10T16:45:15.437Z,8.47
2022-09-10T16:47:43.699Z,8.40
2022-09-10T16:50:12.168Z,8.40
2022-09-10T16:52:40.722Z,8.40
2022-09-10T16:55:09.456Z,8.50
2022-09-10T16:58:03.994Z,8.60
2022-09-10T17:00:32.318Z,8.30
2022-09-10T17:03:00.627Z,8.40
2022-09-10T17:05:28.937Z,8.60
2022-09-10T17:07:57.552Z,8.40
2022-09-10T17:10:27.022Z,8.80
2022-09-10T17:12:55.305Z,8.40
2022-09-10T17:15:25.002Z,8.50
2022-09-10T17:17:53.284Z,8.60
2022-09-10T17:20:22.479Z,8.50
2022-09-10T17:22:50.812Z,8.80
2022-09-10T17:25:19.044Z,8.60
2022-09-10T17:27:47.332Z,8.57
2022-09-10T17:30:15.898Z,8.67
2022-09-10T17:32:45.505Z,8.40
2022-09-10T17:35:13.764Z,10.70
2022-09-10T17:37:42.297Z,8.87
2022-09-10T17:40:11.273Z,8.83
2022-09-10T17:42:39.796Z,8.70
2022-09-10T17:45:10.154Z,8.70
2022-09-10T17:47:38.446Z,8.47
2022-09-10T17:50:09.900Z,8.40
2022-09-10T17:52:38.240Z,8.80
2022-09-10T17:55:07.376Z,8.53
2022-09-10T17:57:35.866Z,8.60
2022-09-10T18:00:05.068Z,8.70
2022-09-10T18:02:33.481Z,8.80
2022-09-10T18:05:01.844Z,9.03
2022-09-10T18:07:31.512Z,8.83
2022-09-10T18:09:59.785Z,8.70
2022-09-10T18:12:28.427Z,8.80
2022-09-10T18:14:56.767Z,8.80
2022-09-10T18:17:25.058Z,9.00
2022-09-10T18:19:54.012Z,8.57
2022-09-10T18:22:22.331Z,8.80
2022-09-10T18:24:51.979Z,8.87
2022-09-10T18:27:20.264Z,9.00
2022-09-10T18:29:48.987Z,8.80
2022-09-10T18:32:18.182Z,8.50
2022-09-10T18:34:46.460Z,8.90
2022-09-10T18:37:14.911Z,9.00
2022-09-10T18:39:43.215Z,8.77
2022-09-10T18:42:13.825Z,8.50
2022-09-10T18:44:42.352Z,8.60
2022-09-10T18:47:28.013Z,8.73
2022-09-10T18:49:59.380Z,8.93
2022-09-10T18:52:27.984Z,8.90
2022-09-10T18:54:56.456Z,8.40
2022-09-10T18:57:26.138Z,9.00
2022-09-10T18:59:55.635Z,9.00
2022-09-10T19:02:24.153Z,9.10
2022-09-10T19:05:10.869Z,9.03
2022-09-10T19:07:40.400Z,8.80
2022-09-10T19:10:09.492Z,9.00
2022-09-10T19:12:40.289Z,8.70
2022-09-10T19:15:10.337Z,9.23
2022-09-10T19:17:38.719Z,8.53
2022-09-10T19:20:09.068Z,8.60
2022-09-10T19:22:37.835Z,8.80
2022-09-10T19:25:07.605Z,8.90
2022-09-10T19:27:35.886Z,9.00
2022-09-10T19:30:07.148Z,9.17
2022-09-10T19:32:35.386Z,9.03
2022-09-10T19:35:03.828Z,8.50
2022-09-10T19:37:32.106Z,8.90
2022-09-10T19:40:00.468Z,8.70
2022-09-10T19:42:28.876Z,8.80
2022-09-10T19:44:57.152Z,9.00
2022-09-10T19:47:27.034Z,8.97
2022-09-10T19:49:55.395Z,9.10
2022-09-10T19:52:24.481Z,10.10
2022-09-10T19:54:52.807Z,9.37
2022-09-10T19:57:21.686Z,9.60
2022-09-10T19:59:49.967Z,11.30
2022-09-10T20:02:18.436Z,11.30
2022-09-10T20:04:48.236Z,10.17
2022-09-10T20:07:16.716Z,12.53
2022-09-10T20:09:44.999Z,12.97
2022-09-10T20:12:13.544Z,14.00
2022-09-10T20:14:41.807Z,11.30
2022-09-10T20:17:10.094Z,11.47
2022-09-10T20:19:38.470Z,10.90
2022-09-10T20:22:08.127Z,11.10
2022-09-10T20:24:37.218Z,10.67
2022-09-10T20:27:06.212Z,9.90
2022-09-10T20:29:34.527Z,9.67
2022-09-10T20:32:03.143Z,9.63
2022-09-10T20:34:32.442Z,9.40
2022-09-10T20:37:00.949Z,9.60
2022-09-10T20:39:31.831Z,9.43
2022-09-10T20:42:00.596Z,9.40
2022-09-10T20:44:30.082Z,9.30
2022-09-10T20:46:58.378Z,9.10
2022-09-10T20:49:27.031Z,9.07
2022-09-10T20:51:55.350Z,9.23
2022-09-10T20:54:23.754Z,9.13
2022-09-10T20:56:53.567Z,8.90
2022-09-10T20:59:26.848Z,9.00
2022-09-10T21:01:56.690Z,13.03
2022-09-10T21:04:26.437Z,8.97
2022-09-10T21:06:55.191Z,9.60
2022-09-10T21:09:23.573Z,9.33
2022-09-10T21:11:53.265Z,9.60
2022-09-10T21:14:21.576Z,9.60
2022-09-10T21:16:49.941Z,13.67
2022-09-10T21:19:18.983Z,10.70
2022-09-10T21:21:48.798Z,10.10
2022-09-10T21:24:20.216Z,9.70
2022-09-10T21:26:49.172Z,10.17
2022-09-10T21:29:20.893Z,9.87
2022-09-10T21:31:50.614Z,9.60
2022-09-10T21:34:19.394Z,9.60
2022-09-10T21:36:47.761Z,9.90
2022-09-10T21:39:18.565Z,9.40
2022-09-10T21:41:48.809Z,9.60
2022-09-10T21:44:22.109Z,9.27
2022-09-10T21:46:51.620Z,9.37
2022-09-10T21:49:20.930Z,8.93
2022-09-10T21:51:49.330Z,9.50
2022-09-10T21:54:20.755Z,9.30
2022-09-10T21:56:49.811Z,9.70
2022-09-10T21:59:20.441Z,9.00
2022-09-10T22:01:49.352Z,9.00
2022-09-10T22:04:22.420Z,9.23
2022-09-10T22:06:51.459Z,9.23
2022-09-10T22:09:20.700Z,9.00
2022-09-10T22:11:52.072Z,9.50
2022-09-10T22:14:24.876Z,9.47
2022-09-10T22:16:53.979Z,9.10
2022-09-10T22:19:24.738Z,8.87
2022-09-10T22:21:54.291Z,9.13
2022-09-10T22:24:22.837Z,9.20
2022-09-10T22:26:51.440Z,9.00
2022-09-10T22:29:22.170Z,9.10
2022-09-10T22:31:50.727Z,9.10
2022-09-10T22:34:20.775Z,9.53
2022-09-10T22:36:49.691Z,9.10
2022-09-10T22:39:19.839Z,9.20
2022-09-10T22:41:49.693Z,9.20
2022-09-10T22:44:19.362Z,9.30
2022-09-10T22:46:49.205Z,9.10
2022-09-10T22:49:18.068Z,9.23
2022-09-10T22:51:46.587Z,9.27
2022-09-10T22:54:15.248Z,9.30
2022-09-10T22:56:44.586Z,9.27
2022-09-10T22:59:14.635Z,9.10
2022-09-10T23:01:47.582Z,9.10
2022-09-10T23:04:17.765Z,9.30
2022-09-10T23:06:46.093Z,9.20
2022-09-10T23:09:17.670Z,9.27
2022-09-10T23:11:46.501Z,9.40
2022-09-10T23:14:17.941Z,9.20
2022-09-10T23:16:49.452Z,9.20
2022-09-10T23:19:22.177Z,9.50
2022-09-10T23:21:52.615Z,9.27
2022-09-10T23:24:24.317Z,9.33
2022-09-10T23:26:53.209Z,9.83
2022-09-10T23:29:23.377Z,9.10
2022-09-10T23:31:53.451Z,9.10
2022-09-10T23:34:23.919Z,9.50
2022-09-10T23:36:53.498Z,9.13
2022-09-10T23:39:24.228Z,9.50
2022-09-10T23:41:54.936Z,9.10
2022-09-10T23:44:23.440Z,9.23
2022-09-10T23:46:51.997Z,9.43
2022-09-10T23:49:20.554Z,9.47
2022-09-10T23:51:50.663Z,9.20
2022-09-10T23:54:19.114Z,9.30
2022-09-10T23:56:47.913Z,9.60
2022-09-10T23:59:16.415Z,9.20
